Latest Weather Observations for Coonamble

IDN60801

Issued at 8:03 am EST Saturday 29 August 2015 (issued every 30 minutes, with the page automatically refreshed every 10 minutes)

About weather observations | Map of weather stations | Latest weather observations for NSW | Other Formats
Station Details ID: 051161 Name: COONAMBLE AIRPORT AWS Lat: -30.98 Lon: 148.38 Height: 181.3 m
Data from the previous 72 hours. | See also: Recent months at Coonamble
Date/Time
EST
Temp
°C
App
Temp
°C
Dew
Point
Rel
Hum
%
Delta-T
°C
Wind Press
QNH
hPa
Press
MSL
hPa
Rain
since 9 am
mm
Dir
 
Spd
km/h
Gust
km/h
Spd
kts
Gust
kts
29/08:00am 7.0 6.3 7.0 100 0.0 CALM 0 4 0 2 1025.1 1025.2 0.0
29/07:30am 5.1 4.0 5.1 100 0.0 CALM 0 0 0 0 1024.8 1024.9 0.0
29/07:00am 2.0 0.3 2.0 100 0.0 CALM 0 2 0 1 1024.4 1024.5 0.0
29/06:30am 1.5 -1.6 1.4 99 0.0 ENE 7 9 4 5 1024.3 1024.4 0.0
29/06:00am 2.5 0.9 2.4 99 0.0 CALM 0 0 0 0 1024.1 1024.2 0.0
29/05:30am 4.2 2.9 4.2 100 0.0 CALM 0 4 0 2 1023.8 1023.9 0.0
29/05:00am 4.5 1.6 4.5 100 0.0 SSE 9 11 5 6 1023.6 1023.7 0.0
29/04:30am 4.9 1.7 4.9 100 0.0 SSE 11 13 6 7 1023.5 1023.6 0.0
29/04:00am 5.1 1.9 5.1 100 0.0 SE 11 13 6 7 1023.5 1023.6 0.0
29/03:30am 3.3 -0.3 3.2 99 0.0 SSE 11 13 6 7 1023.3 1023.4 0.0
29/03:00am 3.6 1.1 3.5 99 0.0 SSW 6 6 3 3 1023.7 1023.8 0.0
29/02:30am 3.9 2.5 3.8 99 0.0 CALM 0 0 0 0 1024.0 1024.1 0.0
29/02:00am 5.6 4.2 5.5 99 0.0 SSE 2 6 1 3 1023.9 1024.0 0.0
29/01:30am 5.9 2.9 5.8 99 0.0 SE 11 11 6 6 1024.1 1024.2 0.0
29/01:00am 6.1 3.4 5.8 98 0.1 SE 9 11 5 6 1024.2 1024.3 0.0
29/12:30am 7.4 4.7 7.3 99 0.0 SE 11 13 6 7 1024.3 1024.4 0.0
29/12:00am 7.3 4.5 7.0 98 0.1 SSE 11 13 6 7 1024.3 1024.4 0.0
 
Date/Time
EST
Temp
°C
App
Temp
°C
Dew
Point
Rel
Hum
%
Delta-T
°C
Wind Press
QNH
hPa
Press
MSL
hPa
Rain
since 9 am
mm
Dir
 
Spd
km/h
Gust
km/h
Spd
kts
Gust
kts
28/11:30pm 7.9 5.3 7.6 98 0.1 SE 11 13 6 7 1024.5 1024.6 0.0
28/11:00pm 8.8 6.0 8.5 98 0.1 SSE 13 15 7 8 1024.4 1024.5 0.0
28/10:30pm 9.9 7.3 9.4 97 0.3 SSE 13 15 7 8 1024.5 1024.6 0.0
28/10:00pm 10.0 8.2 9.5 97 0.3 SSE 9 13 5 7 1024.8 1024.9 0.0
28/09:30pm 9.9 7.3 9.4 97 0.3 SSE 13 15 7 8 1024.8 1024.9 0.0
28/09:00pm 10.1 8.3 9.6 97 0.3 SSE 9 11 5 6 1024.7 1024.8 0.0
28/08:30pm 10.5 10.2 10.0 97 0.3 SSE 2 6 1 3 1024.3 1024.4 0.0
28/08:00pm 11.3 10.1 9.7 90 0.8 SSE 6 7 3 4 1024.1 1024.2 0.0
28/07:30pm 11.9 10.6 10.0 88 1.0 S 7 7 4 4 1023.8 1023.9 0.0
28/07:00pm 12.1 10.8 9.8 86 1.2 S 7 7 4 4 1023.6 1023.7 0.0
28/06:30pm 12.1 10.4 9.7 85 1.2 SSE 9 11 5 6 1023.4 1023.5 0.0
28/06:00pm 12.7 10.3 8.6 76 2.1 SSE 11 13 6 7 1023.3 1023.4 0.0
28/05:30pm 13.7 10.6 7.2 65 3.2 S 13 17 7 9 1022.9 1023.1 0.0
28/05:00pm 14.8 10.7 6.4 57 4.1 S 17 20 9 11 1022.7 1022.8 0.0
28/04:30pm 15.5 11.9 6.8 56 4.3 SSW 15 20 8 11 1022.4 1022.5 0.0
28/04:00pm 16.2 12.0 5.5 49 5.2 SSW 17 20 9 11 1022.2 1022.3 0.0
28/03:30pm 16.6 11.2 4.6 45 5.7 SSW 22 28 12 15 1022.2 1022.3 0.0
28/03:00pm 16.4 11.8 5.7 49 5.2 SW 19 24 10 13 1022.2 1022.3 0.0
28/02:30pm 16.7 12.0 5.3 47 5.5 SSW 19 24 10 13 1022.3 1022.4 0.0
28/02:00pm 16.9 12.0 4.3 43 6.0 SW 19 26 10 14 1022.5 1022.6 0.0
28/01:30pm 17.1 12.0 4.1 42 6.2 WSW 20 28 11 15 1022.8 1023.0 0.0
28/01:00pm 16.6 11.8 2.6 39 6.4 SW 17 28 9 15 1023.3 1023.4 0.0
28/12:30pm 16.5 11.4 2.9 40 6.2 WSW 19 30 10 16 1023.7 1023.8 0.0
28/12:00pm 16.8 11.5 3.1 40 6.3 SW 20 26 11 14 1024.3 1024.4 0.0
28/11:30am 16.1 11.2 4.2 45 5.6 WSW 19 30 10 16 1024.7 1024.8 0.0
28/11:00am 15.6 11.6 4.9 49 5.1 WSW 15 22 8 12 1025.1 1025.2 0.0
28/10:30am 15.3 12.9 8.5 64 3.5 SW 11 19 6 10 1025.2 1025.3 0.0
28/10:00am 13.9 12.4 10.5 80 1.8 WSW 9 15 5 8 1025.2 1025.3 0.0
28/09:30am 12.1 10.8 10.0 87 1.1 W 7 11 4 6 1025.4 1025.5 0.0
28/09:00am 10.0 8.8 9.7 98 0.2 WSW 6 9 3 5 1025.6 1025.7 0.0
28/08:30am 8.5 7.0 8.5 100 0.0 W 6 7 3 4 1025.3 1025.4 0.0
28/08:00am 7.1 6.0 7.1 100 0.0 NNW 2 6 1 3 1025.0 1025.1 0.0
28/07:30am 4.8 2.9 4.8 100 0.0 N 4 6 2 3 1024.6 1024.7 0.0
28/07:00am 2.2 0.6 2.2 100 0.0 CALM 0 0 0 0 1024.3 1024.4 0.0
28/06:30am 1.8 0.1 1.8 100 0.0 CALM 0 0 0 0 1024.0 1024.1 0.0
28/06:00am 1.4 -0.4 1.4 100 0.0 CALM 0 0 0 0 1023.7 1023.8 0.0
28/05:30am 1.8 0.1 1.8 100 0.0 CALM 0 0 0 0 1023.5 1023.6 0.0
28/05:00am 2.1 0.4 2.1 100 0.0 CALM 0 0 0 0 1023.2 1023.3 0.0
28/04:30am 2.2 -0.2 2.2 100 0.0 NNW 4 6 2 3 1022.9 1023.1 0.0
28/04:00am 2.2 -0.8 2.2 100 0.0 NW 7 7 4 4 1022.7 1022.8 0.0
28/03:30am 3.4 2.0 3.4 100 0.0 CALM 0 0 0 0 1022.5 1022.6 0.0
28/03:00am 3.8 2.4 3.8 100 0.0 CALM 0 0 0 0 1022.4 1022.5 0.0
28/02:30am 3.6 1.1 3.6 100 0.0 SSE 6 7 3 4 1022.5 1022.6 0.0
28/02:00am 4.2 2.9 4.2 100 0.0 CALM 0 0 0 0 1022.7 1022.8 0.0
28/01:30am 4.6 3.4 4.6 100 0.0 CALM 0 0 0 0 1022.8 1023.0 0.0
28/01:00am 5.3 4.2 5.3 100 0.0 CALM 0 0 0 0 1022.9 1023.1 0.0
28/12:30am 5.6 3.3 5.6 100 0.0 ENE 7 7 4 4 1023.0 1023.2 0.0
28/12:00am 5.9 3.6 5.8 99 0.0 ENE 7 9 4 5 1023.0 1023.2 0.0
 
Date/Time
EST
Temp
°C
App
Temp
°C
Dew
Point
Rel
Hum
%
Delta-T
°C
Wind Press
QNH
hPa
Press
MSL
hPa
Rain
since 9 am
mm
Dir
 
Spd
km/h
Gust
km/h
Spd
kts
Gust
kts
27/11:30pm 6.3 5.4 6.2 99 0.0 CALM 0 0 0 0 1023.0 1023.2 0.0
27/11:00pm 6.5 4.5 6.2 98 0.1 SE 6 7 3 4 1023.2 1023.3 0.0
27/10:30pm 7.9 6.2 7.6 98 0.1 SSE 6 9 3 5 1023.0 1023.2 0.0
27/10:00pm 8.1 5.9 7.8 98 0.1 S 9 13 5 7 1022.9 1023.1 0.0
27/09:30pm 8.4 6.6 8.1 98 0.1 S 7 9 4 5 1023.0 1023.2 0.0
27/09:00pm 8.2 6.0 7.8 97 0.2 SSE 9 9 5 5 1022.9 1023.1 0.0
27/08:30pm 8.8 6.7 8.4 97 0.2 S 9 11 5 6 1022.8 1023.0 0.0
27/08:00pm 9.8 7.5 9.0 95 0.4 SSW 11 15 6 8 1022.4 1022.5 0.0
27/07:30pm 11.4 8.9 9.8 90 0.8 SSW 13 19 7 10 1022.2 1022.3 0.0
27/07:00pm 12.0 8.8 10.1 88 1.0 SSW 17 22 9 12 1021.8 1021.9 0.0
27/06:30pm 10.6 9.2 9.0 90 0.8 W 6 11 3 6 1020.9 1021.0 0.0
27/06:00pm 12.4 10.5 8.9 79 1.8 WNW 9 13 5 7 1020.5 1020.6 0.0
27/05:30pm 14.0 11.6 8.8 71 2.7 NW 11 11 6 6 1020.2 1020.3 0.0
27/05:00pm 15.8 13.6 9.2 65 3.4 WNW 11 13 6 7 1020.0 1020.1 0.0
27/04:30pm 16.8 12.7 6.0 49 5.3 WNW 17 22 9 12 1019.8 1019.9 0.0
27/04:00pm 17.3 13.1 5.9 47 5.6 W 17 22 9 12 1019.7 1019.8 0.0
27/03:30pm 16.3 12.6 7.8 57 4.3 W 17 22 9 12 1019.7 1019.8 0.0
27/03:00pm 16.7 12.0 7.6 55 4.6 W 22 30 12 16 1019.7 1019.8 0.0
27/02:30pm 18.0 13.7 8.0 52 5.1 WNW 20 33 11 18 1019.8 1019.9 0.0
27/02:00pm 16.9 13.3 8.3 57 4.4 WNW 17 24 9 13 1020.0 1020.1 0.0
27/01:30pm 16.5 13.6 11.0 70 3.0 W 17 24 9 13 1020.4 1020.5 0.0
27/01:00pm 16.2 14.1 11.2 72 2.7 WNW 13 17 7 9 1020.8 1020.9 0.0
27/12:30pm 15.8 13.8 12.7 82 1.7 WNW 15 19 8 10 1021.4 1021.5 0.0
27/12:00pm 14.9 12.8 13.6 92 0.7 NW 17 20 9 11 1021.9 1022.0 0.0
27/11:30am 14.3 13.0 13.8 97 0.3 N 13 19 7 10 1022.3 1022.4 0.0
27/11:00am 13.9 12.2 13.6 98 0.2 NNW 15 20 8 11 1022.4 1022.5 0.0
27/10:30am 13.5 12.0 13.2 98 0.2 N 13 19 7 10 1022.5 1022.6 0.0
27/10:00am 13.0 12.1 12.7 98 0.2 N 9 13 5 7 1022.6 1022.7 0.0
27/09:30am 12.6 10.9 12.3 98 0.2 NNW 13 15 7 8 1023.0 1023.2 0.0
27/09:00am 11.8 10.6 11.6 99 0.1 NNW 9 11 5 6 1022.9 1023.1 0.4
27/08:30am 11.5 10.6 11.5 100 0.0 NNW 7 9 4 5 1023.0 1023.2 0.4
27/08:00am 10.3 9.1 10.3 100 0.0 E 7 9 4 5 1022.3 1022.4 0.4
27/07:30am 9.5 7.7 9.5 100 0.0 ENE 9 9 5 5 1022.3 1022.4 0.4
27/07:00am 9.2 9.0 9.2 100 0.0 CALM 0 0 0 0 1022.0 1022.1 0.4
27/06:30am 9.0 8.8 9.0 100 0.0 CALM 0 0 0 0 1022.0 1022.1 0.4
27/06:00am 8.9 8.7 8.9 100 0.0 CALM 0 0 0 0 1021.7 1021.8 0.2
27/05:30am 8.7 8.4 8.7 100 0.0 CALM 0 4 0 2 1021.2 1021.3 0.0
27/05:00am 8.4 5.2 8.4 100 0.0 ENE 15 19 8 10 1020.4 1020.5 0.0
27/04:30am 7.8 6.2 7.8 100 0.0 ENE 6 7 3 4 1020.7 1020.8 0.0
27/04:00am 7.7 5.5 7.7 100 0.0 ENE 9 11 5 6 1020.4 1020.5 0.0
27/03:30am 7.1 6.4 7.1 100 0.0 CALM 0 0 0 0 1020.7 1020.8 0.0
27/03:00am 6.9 5.0 6.9 100 0.0 NNW 6 7 3 4 1020.8 1020.9 0.0
27/02:30am 6.2 5.3 6.2 100 0.0 CALM 0 0 0 0 1021.1 1021.2 0.0
27/02:00am 5.8 4.8 5.8 100 0.0 CALM 0 0 0 0 1021.4 1021.5 0.0
27/01:30am 6.1 5.2 6.1 100 0.0 CALM 0 0 0 0 1021.4 1021.5 0.0
27/01:00am 6.6 5.8 6.6 100 0.0 CALM 0 0 0 0 1021.6 1021.7 0.0
27/12:30am 8.3 7.9 8.3 100 0.0 CALM 0 0 0 0 1021.6 1021.7 0.0
27/12:00am 7.5 6.9 7.4 99 0.0 CALM 0 0 0 0 1022.0 1022.1 0.0
 
Date/Time
EST
Temp
°C
App
Temp
°C
Dew
Point
Rel
Hum
%
Delta-T
°C
Wind Press
QNH
hPa
Press
MSL
hPa
Rain
since 9 am
mm
Dir
 
Spd
km/h
Gust
km/h
Spd
kts
Gust
kts
26/11:30pm 8.7 6.7 8.6 99 0.0 ENE 9 11 5 6 1022.0 1022.1 0.0
26/11:00pm 9.7 8.5 9.7 100 0.0 NE 6 9 3 5 1021.9 1022.0 0.0
26/10:30pm 9.7 7.6 9.6 99 0.1 ENE 11 11 6 6 1022.1 1022.2 0.0
26/10:00pm 10.2 8.9 10.0 99 0.1 NE 7 9 4 5 1022.2 1022.3 0.0
26/09:30pm 10.3 9.2 10.1 99 0.1 NE 6 7 3 4 1023.0 1023.2 0.0
26/09:00pm 10.4 8.8 10.2 99 0.1 ENE 9 9 5 5 1022.9 1023.1 0.0
26/08:30pm 11.0 9.6 10.8 99 0.1 ENE 9 11 5 6 1023.2 1023.3 0.0
26/08:00pm 11.7 12.1 11.4 98 0.2 CALM 0 9 0 5 1023.0 1023.2 0.0
26/07:30pm 12.4 12.3 12.1 98 0.2 NE 4 9 2 5 1022.9 1023.1 0.0
26/07:00pm 12.8 13.5 12.3 97 0.3 CALM 0 0 0 0 1022.9 1023.1 0.0
26/06:30pm 12.8 13.1 12.3 97 0.3 E 2 7 1 4 1022.3 1022.4 0.0
26/06:00pm 13.3 13.0 12.8 97 0.3 NW 6 7 3 4 1022.1 1022.2 0.0
26/05:30pm 13.7 12.8 11.2 85 1.3 N 7 9 4 5 1021.7 1021.8 0.0
26/05:00pm 14.0 12.6 10.8 81 1.7 NNW 9 11 5 6 1021.6 1021.7 0.0
26/04:30pm 14.2 12.5 11.2 82 1.6 NW 11 15 6 8 1021.3 1021.4 0.0
26/04:00pm 14.4 13.0 11.0 80 1.8 WNW 9 11 5 6 1021.3 1021.4 0.0
26/03:30pm 14.5 13.2 11.1 80 1.8 WNW 9 13 5 7 1021.3 1021.4 0.0
26/03:00pm 14.7 13.8 11.5 81 1.7 NNW 7 11 4 6 1021.0 1021.1 0.0
26/02:30pm 13.7 13.1 10.5 81 1.7 WNW 4 7 2 4 1021.3 1021.4 0.0
26/02:00pm 13.8 12.9 10.6 81 1.7 NW 6 11 3 6 1021.3 1021.4 0.0
26/01:30pm 13.9 12.9 11.1 83 1.5 NW 7 13 4 7 1021.4 1021.5 0.0
26/01:00pm 13.4 12.3 10.8 84 1.4 WNW 7 11 4 6 1021.8 1021.9 0.0
26/12:30pm 13.0 11.9 10.7 86 1.2 WNW 7 11 4 6 1022.4 1022.5 0.0
26/12:00pm 13.0 12.2 11.6 91 0.7 SW 7 13 4 7 1022.8 1023.0 0.0
26/11:30am 12.5 11.5 11.1 91 0.7 SW 7 15 4 8 1023.2 1023.3 0.0
26/11:00am 12.0 10.4 11.5 97 0.3 WSW 11 17 6 9 1023.7 1023.8 0.0
26/10:30am 11.6 9.9 11.3 98 0.2 SW 11 15 6 8 1023.9 1024.0 0.0
26/10:00am 11.2 9.4 10.9 98 0.2 SW 11 19 6 10 1024.0 1024.1 0.0
26/09:30am 10.6 8.7 10.4 99 0.1 W 11 17 6 9 1023.8 1023.9 0.0
26/09:00am 10.4 8.4 10.1 98 0.2 W 11 15 6 8 1023.9 1024.0 0.0
26/08:30am 10.5 8.2 10.3 99 0.1 W 13 17 7 9 1023.7 1023.8 0.0

Other Formats:

Comma delimited format used in spreadsheet applications
http://www.bom.gov.au/fwo/IDN60801/IDN60801.95718.axf

JavaScript Object Notation format (JSON) in row-major order
http://www.bom.gov.au/fwo/IDN60801/IDN60801.95718.json